sensor_id;sensor_type;location;lat;lon;timestamp;temperature;humidity
796;DHT22;381;48.770;9.188;2023-07-16T00:03:27;22.20;99.90
796;DHT22;381;48.770;9.188;2023-07-16T00:08:31;22.10;99.90
796;DHT22;381;48.770;9.188;2023-07-16T00:13:33;22.10;99.90
796;DHT22;381;48.770;9.188;2023-07-16T00:18:35;22.10;99.90
796;DHT22;381;48.770;9.188;2023-07-16T00:23:38;22.10;99.90
796;DHT22;381;48.770;9.188;2023-07-16T00:28:40;22.00;99.90
796;DHT22;381;48.770;9.188;2023-07-16T00:33:42;22.00;99.90
796;DHT22;381;48.770;9.188;2023-07-16T00:38:46;22.00;99.90
796;DHT22;381;48.770;9.188;2023-07-16T00:43:48;21.90;99.90
796;DHT22;381;48.770;9.188;2023-07-16T00:48:50;21.90;99.90
796;DHT22;381;48.770;9.188;2023-07-16T00:53:54;21.80;99.90
796;DHT22;381;48.770;9.188;2023-07-16T00:58:56;21.80;99.90
796;DHT22;381;48.770;9.188;2023-07-16T01:03:58;21.80;99.90
796;DHT22;381;48.770;9.188;2023-07-16T01:09:06;21.80;99.90
796;DHT22;381;48.770;9.188;2023-07-16T01:14:09;21.80;99.90
796;DHT22;381;48.770;9.188;2023-07-16T01:19:11;21.80;99.90
796;DHT22;381;48.770;9.188;2023-07-16T01:24:36;21.80;99.90
796;DHT22;381;48.770;9.188;2023-07-16T01:29:46;21.90;99.90
796;DHT22;381;48.770;9.188;2023-07-16T01:34:52;22.00;99.90
796;DHT22;381;48.770;9.188;2023-07-16T01:39:55;22.00;99.90
796;DHT22;381;48.770;9.188;2023-07-16T01:44:58;22.00;99.90
796;DHT22;381;48.770;9.188;2023-07-16T01:50:01;22.00;99.90
796;DHT22;381;48.770;9.188;2023-07-16T01:55:04;22.00;99.90
796;DHT22;381;48.770;9.188;2023-07-16T02:00:09;22.00;99.90
796;DHT22;381;48.770;9.188;2023-07-16T02:05:20;21.80;99.90
796;DHT22;381;48.770;9.188;2023-07-16T02:10:23;21.70;99.90
796;DHT22;381;48.770;9.188;2023-07-16T02:15:26;21.60;99.90
796;DHT22;381;48.770;9.188;2023-07-16T02:20:28;21.50;99.90
796;DHT22;381;48.770;9.188;2023-07-16T02:25:31;21.40;99.90
796;DHT22;381;48.770;9.188;2023-07-16T02:30:35;21.20;99.90
796;DHT22;381;48.770;9.188;2023-07-16T02:35:37;21.20;99.90
796;DHT22;381;48.770;9.188;2023-07-16T02:40:43;21.10;99.90
796;DHT22;381;48.770;9.188;2023-07-16T02:45:46;21.10;99.90
796;DHT22;381;48.770;9.188;2023-07-16T02:50:48;21.10;99.90
796;DHT22;381;48.770;9.188;2023-07-16T02:55:50;21.00;99.90
796;DHT22;381;48.770;9.188;2023-07-16T03:00:54;21.00;99.90
796;DHT22;381;48.770;9.188;2023-07-16T03:05:56;20.90;99.90
796;DHT22;381;48.770;9.188;2023-07-16T03:10:58;20.90;99.90
796;DHT22;381;48.770;9.188;2023-07-16T03:16:03;20.80;99.90
796;DHT22;381;48.770;9.188;2023-07-16T03:21:05;20.80;99.90
796;DHT22;381;48.770;9.188;2023-07-16T03:26:07;20.70;99.90
796;DHT22;381;48.770;9.188;2023-07-16T03:31:10;20.70;99.90
796;DHT22;381;48.770;9.188;2023-07-16T03:36:15;20.60;99.90
796;DHT22;381;48.770;9.188;2023-07-16T03:41:17;20.50;99.90
796;DHT22;381;48.770;9.188;2023-07-16T03:46:21;20.50;99.90
796;DHT22;381;48.770;9.188;2023-07-16T03:51:24;20.50;99.90
796;DHT22;381;48.770;9.188;2023-07-16T03:56:28;20.40;99.90
796;DHT22;381;48.770;9.188;2023-07-16T04:01:32;20.40;99.90
796;DHT22;381;48.770;9.188;2023-07-16T04:06:34;20.30;99.90
796;DHT22;381;48.770;9.188;2023-07-16T04:11:36;20.40;99.90
796;DHT22;381;48.770;9.188;2023-07-16T04:16:39;20.30;99.90
796;DHT22;381;48.770;9.188;2023-07-16T04:21:41;20.30;99.90
796;DHT22;381;48.770;9.188;2023-07-16T04:26:43;20.40;99.90
796;DHT22;381;48.770;9.188;2023-07-16T04:31:47;20.40;99.90
796;DHT22;381;48.770;9.188;2023-07-16T04:36:49;20.40;99.90
796;DHT22;381;48.770;9.188;2023-07-16T04:41:51;20.30;99.90
796;DHT22;381;48.770;9.188;2023-07-16T04:46:54;20.30;99.90
796;DHT22;381;48.770;9.188;2023-07-16T04:51:56;20.30;99.90
796;DHT22;381;48.770;9.188;2023-07-16T04:56:59;20.30;99.90
796;DHT22;381;48.770;9.188;2023-07-16T05:02:05;20.40;99.90
796;DHT22;381;48.770;9.188;2023-07-16T05:07:07;20.50;99.90
796;DHT22;381;48.770;9.188;2023-07-16T05:12:09;20.50;99.90
796;DHT22;381;48.770;9.188;2023-07-16T05:17:13;20.60;99.90
796;DHT22;381;48.770;9.188;2023-07-16T05:22:15;20.70;99.90
796;DHT22;381;48.770;9.188;2023-07-16T05:27:17;20.70;99.90
796;DHT22;381;48.770;9.188;2023-07-16T05:32:21;20.80;99.90
796;DHT22;381;48.770;9.188;2023-07-16T05:37:23;20.90;99.90
796;DHT22;381;48.770;9.188;2023-07-16T05:42:25;20.90;99.90
796;DHT22;381;48.770;9.188;2023-07-16T05:47:29;21.00;99.90
796;DHT22;381;48.770;9.188;2023-07-16T05:52:31;21.10;99.90
796;DHT22;381;48.770;9.188;2023-07-16T05:57:33;21.20;99.90
796;DHT22;381;48.770;9.188;2023-07-16T06:02:36;21.40;99.90
796;DHT22;381;48.770;9.188;2023-07-16T06:07:38;21.50;99.90
796;DHT22;381;48.770;9.188;2023-07-16T06:12:40;21.50;99.90
796;DHT22;381;48.770;9.188;2023-07-16T06:17:44;21.60;99.90
796;DHT22;381;48.770;9.188;2023-07-16T06:22:46;21.60;99.90
796;DHT22;381;48.770;9.188;2023-07-16T06:27:48;21.60;99.90
796;DHT22;381;48.770;9.188;2023-07-16T06:32:51;21.60;99.90
796;DHT22;381;48.770;9.188;2023-07-16T06:37:53;21.50;99.90
796;DHT22;381;48.770;9.188;2023-07-16T06:42:56;21.50;99.90
796;DHT22;381;48.770;9.188;2023-07-16T06:47:59;21.60;99.90
796;DHT22;381;48.770;9.188;2023-07-16T06:53:01;21.70;99.90
796;DHT22;381;48.770;9.188;2023-07-16T06:58:03;21.90;99.90
796;DHT22;381;48.770;9.188;2023-07-16T07:03:06;22.20;99.90
796;DHT22;381;48.770;9.188;2023-07-16T07:08:08;22.40;99.90
796;DHT22;381;48.770;9.188;2023-07-16T07:13:10;22.80;99.90
796;DHT22;381;48.770;9.188;2023-07-16T07:18:14;23.00;99.90
796;DHT22;381;48.770;9.188;2023-07-16T07:23:16;23.10;99.90
796;DHT22;381;48.770;9.188;2023-07-16T07:28:19;23.20;99.90
796;DHT22;381;48.770;9.188;2023-07-16T07:33:23;23.30;99.90
796;DHT22;381;48.770;9.188;2023-07-16T07:38:25;23.40;99.90
796;DHT22;381;48.770;9.188;2023-07-16T07:43:27;23.70;99.90
796;DHT22;381;48.770;9.188;2023-07-16T07:48:30;24.00;99.90
796;DHT22;381;48.770;9.188;2023-07-16T07:53:33;24.30;99.90
796;DHT22;381;48.770;9.188;2023-07-16T07:58:35;24.50;99.90
796;DHT22;381;48.770;9.188;2023-07-16T08:03:38;24.60;99.90
796;DHT22;381;48.770;9.188;2023-07-16T08:08:41;24.70;99.90
796;DHT22;381;48.770;9.188;2023-07-16T08:13:43;24.70;99.90
796;DHT22;381;48.770;9.188;2023-07-16T08:18:46;25.00;99.90
796;DHT22;381;48.770;9.188;2023-07-16T08:23:49;25.20;99.90
796;DHT22;381;48.770;9.188;2023-07-16T08:28:51;25.40;99.90
796;DHT22;381;48.770;9.188;2023-07-16T08:33:54;25.70;99.60
796;DHT22;381;48.770;9.188;2023-07-16T08:38:56;25.80;99.90
796;DHT22;381;48.770;9.188;2023-07-16T08:43:59;25.80;99.90
796;DHT22;381;48.770;9.188;2023-07-16T08:49:03;26.00;99.60
796;DHT22;381;48.770;9.188;2023-07-16T08:54:07;26.70;98.30
796;DHT22;381;48.770;9.188;2023-07-16T08:59:10;26.90;96.20
796;DHT22;381;48.770;9.188;2023-07-16T09:04:14;26.90;93.30
796;DHT22;381;48.770;9.188;2023-07-16T09:09:20;27.10;95.10
796;DHT22;381;48.770;9.188;2023-07-16T09:14:22;27.50;93.80
796;DHT22;381;48.770;9.188;2023-07-16T09:19:26;27.90;92.40
796;DHT22;381;48.770;9.188;2023-07-16T09:24:29;28.20;89.80
796;DHT22;381;48.770;9.188;2023-07-16T09:29:31;28.50;91.40
796;DHT22;381;48.770;9.188;2023-07-16T09:34:34;28.90;87.40
796;DHT22;381;48.770;9.188;2023-07-16T09:39:37;29.10;86.90
796;DHT22;381;48.770;9.188;2023-07-16T09:44:40;29.50;86.60
796;DHT22;381;48.770;9.188;2023-07-16T09:49:46;29.90;86.80
796;DHT22;381;48.770;9.188;2023-07-16T09:54:49;30.50;82.80
796;DHT22;381;48.770;9.188;2023-07-16T09:59:56;31.20;75.30
796;DHT22;381;48.770;9.188;2023-07-16T10:05:11;32.10;74.50
796;DHT22;381;48.770;9.188;2023-07-16T10:10:13;32.20;67.70
796;DHT22;381;48.770;9.188;2023-07-16T10:15:25;32.90;68.40
796;DHT22;381;48.770;9.188;2023-07-16T10:20:33;32.90;70.00
796;DHT22;381;48.770;9.188;2023-07-16T10:25:35;33.50;69.50
796;DHT22;381;48.770;9.188;2023-07-16T10:30:37;34.10;64.60
796;DHT22;381;48.770;9.188;2023-07-16T10:35:42;33.20;63.40
796;DHT22;381;48.770;9.188;2023-07-16T10:40:45;31.90;63.50
796;DHT22;381;48.770;9.188;2023-07-16T10:45:50;30.50;63.40
796;DHT22;381;48.770;9.188;2023-07-16T10:50:54;29.20;68.40
796;DHT22;381;48.770;9.188;2023-07-16T10:55:58;28.40;69.50
796;DHT22;381;48.770;9.188;2023-07-16T11:01:02;27.80;77.00
796;DHT22;381;48.770;9.188;2023-07-16T11:06:08;27.50;77.60
796;DHT22;381;48.770;9.188;2023-07-16T11:11:10;27.20;78.20
796;DHT22;381;48.770;9.188;2023-07-16T11:16:12;27.20;78.30
796;DHT22;381;48.770;9.188;2023-07-16T11:21:18;27.20;76.40
796;DHT22;381;48.770;9.188;2023-07-16T11:26:20;27.20;72.00
796;DHT22;381;48.770;9.188;2023-07-16T11:31:23;27.10;73.20
796;DHT22;381;48.770;9.188;2023-07-16T11:36:28;27.10;73.60
796;DHT22;381;48.770;9.188;2023-07-16T11:41:31;27.00;74.50
796;DHT22;381;48.770;9.188;2023-07-16T11:46:34;27.10;75.50
796;DHT22;381;48.770;9.188;2023-07-16T11:51:37;27.30;75.70
796;DHT22;381;48.770;9.188;2023-07-16T11:56:39;27.30;74.80
796;DHT22;381;48.770;9.188;2023-07-16T12:01:41;27.20;73.00
796;DHT22;381;48.770;9.188;2023-07-16T12:06:45;27.20;72.50
796;DHT22;381;48.770;9.188;2023-07-16T12:11:48;27.20;72.70
796;DHT22;381;48.770;9.188;2023-07-16T12:16:50;27.20;75.40
796;DHT22;381;48.770;9.188;2023-07-16T12:21:53;27.10;73.90
796;DHT22;381;48.770;9.188;2023-07-16T12:26:57;27.00;75.10
796;DHT22;381;48.770;9.188;2023-07-16T12:31:59;26.90;75.50
796;DHT22;381;48.770;9.188;2023-07-16T12:37:03;26.90;75.30
796;DHT22;381;48.770;9.188;2023-07-16T12:42:06;26.80;76.30
796;DHT22;381;48.770;9.188;2023-07-16T12:47:08;26.60;77.60
796;DHT22;381;48.770;9.188;2023-07-16T12:52:12;26.60;80.00
796;DHT22;381;48.770;9.188;2023-07-16T12:57:14;26.60;77.20
796;DHT22;381;48.770;9.188;2023-07-16T13:02:16;26.70;74.50
796;DHT22;381;48.770;9.188;2023-07-16T13:07:19;26.70;76.10
796;DHT22;381;48.770;9.188;2023-07-16T13:12:22;26.60;79.10
796;DHT22;381;48.770;9.188;2023-07-16T13:17:24;26.50;76.50
796;DHT22;381;48.770;9.188;2023-07-16T13:22:27;26.40;83.90
796;DHT22;381;48.770;9.188;2023-07-16T13:27:29;26.30;76.20
796;DHT22;381;48.770;9.188;2023-07-16T13:32:31;26.20;79.90
796;DHT22;381;48.770;9.188;2023-07-16T13:37:35;26.20;78.20
796;DHT22;381;48.770;9.188;2023-07-16T13:42:37;26.10;79.30
796;DHT22;381;48.770;9.188;2023-07-16T13:47:39;26.20;77.10
796;DHT22;381;48.770;9.188;2023-07-16T13:52:43;26.20;80.00
796;DHT22;381;48.770;9.188;2023-07-16T13:57:45;26.40;75.80
796;DHT22;381;48.770;9.188;2023-07-16T14:02:48;26.50;80.30
796;DHT22;381;48.770;9.188;2023-07-16T14:07:51;26.70;78.00
796;DHT22;381;48.770;9.188;2023-07-16T14:12:55;26.70;80.00
796;DHT22;381;48.770;9.188;2023-07-16T14:18:08;26.80;80.30
796;DHT22;381;48.770;9.188;2023-07-16T14:23:13;26.90;78.30
796;DHT22;381;48.770;9.188;2023-07-16T14:28:15;27.10;80.10
796;DHT22;381;48.770;9.188;2023-07-16T14:33:17;27.10;78.60
796;DHT22;381;48.770;9.188;2023-07-16T14:38:21;27.00;80.20
796;DHT22;381;48.770;9.188;2023-07-16T14:43:23;27.00;80.70
796;DHT22;381;48.770;9.188;2023-07-16T14:48:25;27.00;77.80
796;DHT22;381;48.770;9.188;2023-07-16T14:53:29;27.00;81.60
796;DHT22;381;48.770;9.188;2023-07-16T14:58:32;27.10;83.10
796;DHT22;381;48.770;9.188;2023-07-16T15:03:34;27.20;81.80
796;DHT22;381;48.770;9.188;2023-07-16T15:08:39;27.10;83.90
796;DHT22;381;48.770;9.188;2023-07-16T15:13:41;27.00;79.60
796;DHT22;381;48.770;9.188;2023-07-16T15:18:43;26.90;79.90
796;DHT22;381;48.770;9.188;2023-07-16T15:23:47;26.80;81.80
796;DHT22;381;48.770;9.188;2023-07-16T15:28:49;26.80;82.80
796;DHT22;381;48.770;9.188;2023-07-16T15:33:51;26.80;79.70
796;DHT22;381;48.770;9.188;2023-07-16T15:38:55;26.90;81.50
796;DHT22;381;48.770;9.188;2023-07-16T15:43:57;27.00;79.40
796;DHT22;381;48.770;9.188;2023-07-16T15:48:59;27.00;81.40
796;DHT22;381;48.770;9.188;2023-07-16T15:54:03;27.00;79.00
796;DHT22;381;48.770;9.188;2023-07-16T15:59:07;27.00;80.20
796;DHT22;381;48.770;9.188;2023-07-16T16:04:09;27.00;79.00
796;DHT22;381;48.770;9.188;2023-07-16T16:09:12;27.10;77.40
796;DHT22;381;48.770;9.188;2023-07-16T16:14:14;27.10;76.90
796;DHT22;381;48.770;9.188;2023-07-16T16:19:19;27.20;77.30
796;DHT22;381;48.770;9.188;2023-07-16T16:24:22;27.20;75.90
796;DHT22;381;48.770;9.188;2023-07-16T16:29:24;27.20;77.10
796;DHT22;381;48.770;9.188;2023-07-16T16:34:28;27.20;76.80
796;DHT22;381;48.770;9.188;2023-07-16T16:39:32;27.00;76.10
796;DHT22;381;48.770;9.188;2023-07-16T16:44:34;26.80;78.90
796;DHT22;381;48.770;9.188;2023-07-16T16:49:36;26.70;76.90
796;DHT22;381;48.770;9.188;2023-07-16T16:54:40;26.70;75.50
796;DHT22;381;48.770;9.188;2023-07-16T16:59:44;26.60;79.10
796;DHT22;381;48.770;9.188;2023-07-16T17:04:48;26.60;78.60
796;DHT22;381;48.770;9.188;2023-07-16T17:09:53;26.60;79.50
796;DHT22;381;48.770;9.188;2023-07-16T17:14:56;26.60;77.80
796;DHT22;381;48.770;9.188;2023-07-16T17:19:58;26.50;78.60
796;DHT22;381;48.770;9.188;2023-07-16T17:25:02;26.40;76.60
796;DHT22;381;48.770;9.188;2023-07-16T17:30:07;26.40;80.50
796;DHT22;381;48.770;9.188;2023-07-16T17:35:10;26.40;77.30
796;DHT22;381;48.770;9.188;2023-07-16T17:40:14;26.30;76.10
796;DHT22;381;48.770;9.188;2023-07-16T17:45:17;26.30;79.00
796;DHT22;381;48.770;9.188;2023-07-16T17:50:19;26.20;80.30
796;DHT22;381;48.770;9.188;2023-07-16T17:55:22;26.20;81.10
796;DHT22;381;48.770;9.188;2023-07-16T18:00:24;26.10;80.60
796;DHT22;381;48.770;9.188;2023-07-16T18:05:26;26.00;77.80
796;DHT22;381;48.770;9.188;2023-07-16T18:10:31;26.00;77.60
796;DHT22;381;48.770;9.188;2023-07-16T18:15:34;25.90;76.80
796;DHT22;381;48.770;9.188;2023-07-16T18:20:38;25.80;76.70
796;DHT22;381;48.770;9.188;2023-07-16T18:25:41;25.70;79.80
796;DHT22;381;48.770;9.188;2023-07-16T18:30:43;25.60;78.60
796;DHT22;381;48.770;9.188;2023-07-16T18:35:45;25.50;74.60
796;DHT22;381;48.770;9.188;2023-07-16T18:40:51;25.40;76.70
796;DHT22;381;48.770;9.188;2023-07-16T18:45:54;25.30;79.90
796;DHT22;381;48.770;9.188;2023-07-16T18:50:57;25.20;78.90
796;DHT22;381;48.770;9.188;2023-07-16T18:56:01;25.10;82.80
796;DHT22;381;48.770;9.188;2023-07-16T19:01:05;25.10;83.40
796;DHT22;381;48.770;9.188;2023-07-16T19:06:07;25.00;85.90
796;DHT22;381;48.770;9.188;2023-07-16T19:11:10;24.90;78.20
796;DHT22;381;48.770;9.188;2023-07-16T19:16:13;24.80;76.60
796;DHT22;381;48.770;9.188;2023-07-16T19:21:15;24.80;84.00
796;DHT22;381;48.770;9.188;2023-07-16T19:26:18;24.80;84.20
796;DHT22;381;48.770;9.188;2023-07-16T19:31:21;24.70;83.20
796;DHT22;381;48.770;9.188;2023-07-16T19:36:23;24.60;85.60
796;DHT22;381;48.770;9.188;2023-07-16T19:41:27;24.60;83.10
796;DHT22;381;48.770;9.188;2023-07-16T19:46:29;24.60;84.00
796;DHT22;381;48.770;9.188;2023-07-16T19:51:31;24.60;84.80
796;DHT22;381;48.770;9.188;2023-07-16T19:56:34;24.60;82.90
796;DHT22;381;48.770;9.188;2023-07-16T20:01:37;24.50;82.10
796;DHT22;381;48.770;9.188;2023-07-16T20:06:39;24.40;83.20
796;DHT22;381;48.770;9.188;2023-07-16T20:11:42;24.30;83.70
796;DHT22;381;48.770;9.188;2023-07-16T20:16:44;24.20;83.60
796;DHT22;381;48.770;9.188;2023-07-16T20:21:46;24.20;83.20
796;DHT22;381;48.770;9.188;2023-07-16T20:26:50;24.10;82.50
796;DHT22;381;48.770;9.188;2023-07-16T20:31:52;24.00;82.20
796;DHT22;381;48.770;9.188;2023-07-16T20:36:54;23.90;82.70
796;DHT22;381;48.770;9.188;2023-07-16T20:41:58;23.90;84.40
796;DHT22;381;48.770;9.188;2023-07-16T20:47:00;23.80;83.60
796;DHT22;381;48.770;9.188;2023-07-16T20:52:02;23.80;83.60
796;DHT22;381;48.770;9.188;2023-07-16T20:57:06;23.70;83.00
796;DHT22;381;48.770;9.188;2023-07-16T21:02:08;23.70;84.30
796;DHT22;381;48.770;9.188;2023-07-16T21:07:10;23.60;83.90
796;DHT22;381;48.770;9.188;2023-07-16T21:12:14;23.60;84.90
796;DHT22;381;48.770;9.188;2023-07-16T21:17:16;23.50;85.50
796;DHT22;381;48.770;9.188;2023-07-16T21:22:18;23.50;84.70
796;DHT22;381;48.770;9.188;2023-07-16T21:27:23;23.50;86.70
796;DHT22;381;48.770;9.188;2023-07-16T21:32:26;23.40;86.00
796;DHT22;381;48.770;9.188;2023-07-16T21:37:28;23.40;85.10
796;DHT22;381;48.770;9.188;2023-07-16T21:42:31;23.30;85.90
796;DHT22;381;48.770;9.188;2023-07-16T21:47:34;23.30;86.90
796;DHT22;381;48.770;9.188;2023-07-16T21:52:37;23.30;86.00
796;DHT22;381;48.770;9.188;2023-07-16T21:57:42;23.20;86.80
796;DHT22;381;48.770;9.188;2023-07-16T22:02:44;23.20;87.60
796;DHT22;381;48.770;9.188;2023-07-16T22:07:48;23.10;86.60
796;DHT22;381;48.770;9.188;2023-07-16T22:12:52;23.10;87.90
796;DHT22;381;48.770;9.188;2023-07-16T22:17:54;23.00;86.60
796;DHT22;381;48.770;9.188;2023-07-16T22:22:58;22.80;86.90
796;DHT22;381;48.770;9.188;2023-07-16T22:28:01;22.70;87.40
796;DHT22;381;48.770;9.188;2023-07-16T22:33:03;22.60;86.60
796;DHT22;381;48.770;9.188;2023-07-16T22:38:05;22.50;87.90
796;DHT22;381;48.770;9.188;2023-07-16T22:43:09;22.40;88.40
796;DHT22;381;48.770;9.188;2023-07-16T22:48:11;22.40;89.80
796;DHT22;381;48.770;9.188;2023-07-16T22:53:14;22.40;89.00
796;DHT22;381;48.770;9.188;2023-07-16T22:58:18;22.40;89.90
796;DHT22;381;48.770;9.188;2023-07-16T23:03:20;22.40;90.40
796;DHT22;381;48.770;9.188;2023-07-16T23:08:22;22.40;90.20
796;DHT22;381;48.770;9.188;2023-07-16T23:13:26;22.30;90.00
796;DHT22;381;48.770;9.188;2023-07-16T23:18:28;22.30;90.00
796;DHT22;381;48.770;9.188;2023-07-16T23:23:30;22.20;90.90
796;DHT22;381;48.770;9.188;2023-07-16T23:28:36;22.20;91.20
796;DHT22;381;48.770;9.188;2023-07-16T23:33:38;22.20;90.80
796;DHT22;381;48.770;9.188;2023-07-16T23:38:40;22.20;90.80
796;DHT22;381;48.770;9.188;2023-07-16T23:43:44;22.20;91.10
796;DHT22;381;48.770;9.188;2023-07-16T23:48:46;22.20;90.60
796;DHT22;381;48.770;9.188;2023-07-16T23:53:48;22.10;90.40
796;DHT22;381;48.770;9.188;2023-07-16T23:58:51;22.10;91.40
